createdAt,value
2023-01-31T00:01:32.711Z,4.38
2023-01-31T00:04:02.934Z,4.37
2023-01-31T00:06:32.136Z,4.36
2023-01-31T00:09:00.508Z,4.37
2023-01-31T00:11:28.488Z,4.37
2023-01-31T00:13:55.624Z,4.35
2023-01-31T00:16:22.898Z,4.32
2023-01-31T00:18:51.847Z,4.29
2023-01-31T00:21:26.601Z,4.29
2023-01-31T00:23:54.362Z,4.29
2023-01-31T00:26:26.438Z,4.30
2023-01-31T00:28:54.310Z,4.33
2023-01-31T00:31:22.695Z,4.33
2023-01-31T00:33:51.151Z,4.33
2023-01-31T00:36:20.657Z,4.32
2023-01-31T00:38:54.047Z,4.33
2023-01-31T00:41:22.018Z,4.34
2023-01-31T00:43:50.173Z,4.33
2023-01-31T00:46:19.919Z,4.33
2023-01-31T00:48:47.358Z,4.34
2023-01-31T00:51:14.716Z,4.36
2023-01-31T00:53:41.645Z,4.38
2023-01-31T00:56:13.931Z,4.40
2023-01-31T00:58:45.277Z,4.42
2023-01-31T01:01:14.840Z,4.41
2023-01-31T01:03:43.056Z,4.39
2023-01-31T01:06:10.403Z,4.36
2023-01-31T01:08:38.288Z,4.35
2023-01-31T01:11:37.707Z,4.35
2023-01-31T01:14:04.829Z,4.35
2023-01-31T01:16:35.544Z,4.33
2023-01-31T01:19:05.279Z,4.32
2023-01-31T01:21:32.622Z,4.28
2023-01-31T01:24:01.273Z,4.27
2023-01-31T01:26:30.938Z,4.27
2023-01-31T01:28:58.795Z,4.26
2023-01-31T01:31:30.120Z,4.23
2023-01-31T01:34:01.984Z,4.21
2023-01-31T01:36:29.443Z,4.19
2023-01-31T01:38:56.696Z,4.17
2023-01-31T01:41:24.158Z,4.18
2023-01-31T01:43:52.111Z,4.19
2023-01-31T01:46:21.318Z,4.21
2023-01-31T01:48:50.639Z,4.23
2023-01-31T01:51:18.909Z,4.21
2023-01-31T01:53:47.373Z,4.20
2023-01-31T01:56:18.963Z,4.19
2023-01-31T01:58:47.407Z,4.19
2023-01-31T02:01:16.439Z,4.21
2023-01-31T06:07:16.927Z,2.10
2023-01-31T06:09:44.106Z,2.25
2023-01-31T06:12:14.737Z,2.38
2023-01-31T06:14:41.753Z,2.53
2023-01-31T06:17:09.241Z,2.67
2023-01-31T06:19:36.800Z,2.79
2023-01-31T06:22:06.825Z,2.90
2023-01-31T06:24:33.864Z,2.99
2023-01-31T06:27:00.914Z,3.06
2023-01-31T06:29:27.978Z,3.11
2023-01-31T06:31:55.105Z,3.17
2023-01-31T06:34:22.356Z,3.26
2023-01-31T06:36:49.512Z,3.32
2023-01-31T06:39:16.863Z,3.39
2023-01-31T06:41:44.008Z,3.44
2023-01-31T06:44:12.810Z,3.50
2023-01-31T06:46:39.948Z,3.56
2023-01-31T06:49:06.790Z,3.62
2023-01-31T06:51:34.039Z,3.66
2023-01-31T06:54:01.087Z,3.68
2023-01-31T06:56:28.651Z,3.68
2023-01-31T06:58:55.979Z,3.68
2023-01-31T07:01:23.970Z,3.66
2023-01-31T07:03:51.020Z,3.65
2023-01-31T07:06:20.008Z,3.68
2023-01-31T07:08:48.281Z,3.72
2023-01-31T07:11:15.336Z,3.74
2023-01-31T07:13:45.661Z,3.75
2023-01-31T07:16:14.342Z,3.76
2023-01-31T07:18:41.264Z,3.78
2023-01-31T07:21:08.636Z,3.80
2023-01-31T07:23:35.683Z,3.85
2023-01-31T07:26:04.594Z,3.90
2023-01-31T07:28:32.200Z,3.95
2023-01-31T07:31:06.968Z,4.00
2023-01-31T07:33:34.211Z,4.02
2023-01-31T07:36:04.141Z,4.03
2023-01-31T07:38:32.350Z,4.03
2023-01-31T07:41:00.576Z,4.03
2023-01-31T07:43:27.524Z,4.01
2023-01-31T07:45:55.079Z,4.00
2023-01-31T07:48:25.001Z,4.00
2023-01-31T07:50:53.067Z,4.03
2023-01-31T07:53:20.226Z,4.05
2023-01-31T07:55:47.652Z,4.06
2023-01-31T07:58:15.845Z,4.05
2023-01-31T08:01:01.582Z,4.05
2023-01-31T08:03:33.684Z,4.06
2023-01-31T08:06:07.982Z,4.03
2023-01-31T08:08:36.008Z,4.03
2023-01-31T08:11:04.768Z,4.07
2023-01-31T08:13:35.213Z,4.11
2023-01-31T08:16:03.974Z,4.11
2023-01-31T08:18:30.925Z,4.14
2023-01-31T08:20:58.696Z,4.18
2023-01-31T08:23:27.270Z,4.24
2023-01-31T08:26:04.761Z,4.32
2023-01-31T08:28:32.809Z,4.40
2023-01-31T08:31:08.573Z,4.46
2023-01-31T08:33:37.896Z,4.52
2023-01-31T08:36:16.194Z,4.57
2023-01-31T08:38:44.170Z,4.64
2023-01-31T08:41:12.085Z,4.73
2023-01-31T08:43:54.429Z,4.80
2023-01-31T08:46:29.582Z,4.87
2023-01-31T08:48:56.466Z,4.90
2023-01-31T08:51:24.186Z,4.90
2023-01-31T08:53:51.527Z,4.88
2023-01-31T08:56:20.830Z,4.87
2023-01-31T08:58:47.887Z,4.88
2023-01-31T09:01:16.222Z,4.91
2023-01-31T09:03:45.162Z,4.94
2023-01-31T09:06:17.512Z,4.98
2023-01-31T09:08:44.561Z,4.99
2023-01-31T09:11:16.732Z,4.99
2023-01-31T09:15:01.205Z,5.01
2023-01-31T09:17:28.767Z,5.04
2023-01-31T09:19:56.536Z,5.06
2023-01-31T09:22:23.766Z,5.09
2023-01-31T09:24:50.813Z,5.14
2023-01-31T09:27:17.861Z,5.18
2023-01-31T09:29:45.054Z,5.20
2023-01-31T09:32:12.156Z,5.22
2023-01-31T09:34:39.409Z,5.25
2023-01-31T09:37:06.561Z,5.30
2023-01-31T09:39:34.336Z,5.35
2023-01-31T09:42:13.864Z,5.43
2023-01-31T09:44:42.253Z,5.52
2023-01-31T09:47:21.983Z,5.58
2023-01-31T09:49:52.408Z,5.61
2023-01-31T09:52:19.967Z,5.63
2023-01-31T09:54:46.833Z,5.60
2023-01-31T09:57:17.032Z,5.57
2023-01-31T10:00:03.337Z,5.56
2023-01-31T10:02:38.375Z,5.57
2023-01-31T16:06:31.859Z,2.37
2023-01-31T16:09:01.205Z,3.49
2023-01-31T16:11:33.291Z,3.69
2023-01-31T16:14:02.577Z,3.84
2023-01-31T16:16:29.754Z,4.00
2023-01-31T16:18:57.988Z,4.12
2023-01-31T16:21:31.179Z,4.25
2023-01-31T16:23:59.556Z,4.40
2023-01-31T16:26:30.096Z,4.52
2023-01-31T16:28:59.018Z,4.64
2023-01-31T16:31:29.311Z,4.76
2023-01-31T16:33:59.640Z,4.77
2023-01-31T16:36:49.712Z,4.81
2023-01-31T16:39:30.077Z,4.87
2023-01-31T16:41:58.315Z,4.93
2023-01-31T16:44:28.359Z,5.00
2023-01-31T16:46:55.314Z,5.06
2023-01-31T16:49:29.569Z,5.19
2023-01-31T16:52:17.569Z,5.25
2023-01-31T16:55:12.358Z,5.29
2023-01-31T16:57:39.253Z,5.33
2023-01-31T17:00:24.587Z,5.36
2023-01-31T17:02:52.381Z,5.39
2023-01-31T17:05:24.609Z,5.39
2023-01-31T17:07:53.297Z,5.38
2023-01-31T17:10:22.700Z,5.38
2023-01-31T17:12:50.764Z,5.39
2023-01-31T17:15:19.921Z,5.41
2023-01-31T17:17:50.695Z,5.43
2023-01-31T17:20:19.076Z,5.43
2023-01-31T17:22:56.928Z,5.45
2023-01-31T17:25:34.265Z,5.49
2023-01-31T17:28:01.664Z,5.52
2023-01-31T17:30:30.034Z,5.54
2023-01-31T17:32:58.064Z,5.54
2023-01-31T17:35:39.138Z,5.55
2023-01-31T17:38:06.389Z,5.55
2023-01-31T17:40:33.716Z,5.56
2023-01-31T17:43:02.342Z,5.57
2023-01-31T17:45:29.376Z,5.59
2023-01-31T17:47:56.531Z,5.59
2023-01-31T17:50:28.082Z,5.58
2023-01-31T17:52:55.230Z,5.57
2023-01-31T17:55:24.112Z,5.58
2023-01-31T17:57:52.498Z,5.59
2023-01-31T18:00:20.355Z,5.58
2023-01-31T18:02:47.766Z,5.59
2023-01-31T18:05:24.593Z,5.59
2023-01-31T18:07:58.704Z,5.57
2023-01-31T18:10:25.954Z,5.57
2023-01-31T18:12:53.107Z,5.58
2023-01-31T18:15:20.578Z,5.59
2023-01-31T18:17:49.155Z,5.59
2023-01-31T18:20:18.659Z,5.57
2023-01-31T18:22:46.108Z,5.56
2023-01-31T18:25:13.357Z,5.56
2023-01-31T18:27:41.222Z,5.56
2023-01-31T18:30:09.192Z,5.57
2023-01-31T18:32:36.133Z,5.57
2023-01-31T18:35:06.047Z,5.56
2023-01-31T18:37:33.402Z,5.55
2023-01-31T18:40:00.451Z,5.56
2023-01-31T18:42:29.236Z,5.57
2023-01-31T18:44:56.194Z,5.59
2023-01-31T18:47:23.534Z,5.59
2023-01-31T18:49:50.712Z,5.59
2023-01-31T18:52:18.044Z,5.60
2023-01-31T18:54:48.547Z,5.61
2023-01-31T18:57:15.510Z,5.63
2023-01-31T18:59:42.583Z,5.66
2023-01-31T19:02:11.409Z,5.67
2023-01-31T19:04:38.710Z,5.67
2023-01-31T19:07:06.265Z,5.67
2023-01-31T19:09:33.543Z,5.69
2023-01-31T19:12:04.755Z,5.70
2023-01-31T19:14:32.824Z,5.73
2023-01-31T19:17:00.288Z,5.73
2023-01-31T19:19:27.540Z,5.73
2023-01-31T19:21:54.581Z,5.73
2023-01-31T19:24:21.634Z,5.74
2023-01-31T19:27:05.575Z,5.74
2023-01-31T19:29:33.030Z,5.75
2023-01-31T19:32:00.060Z,5.73
2023-01-31T19:34:27.233Z,5.73
2023-01-31T19:36:54.410Z,5.72
2023-01-31T19:39:21.527Z,5.73
2023-01-31T19:41:48.683Z,5.75
2023-01-31T19:44:16.023Z,5.76
2023-01-31T19:46:43.514Z,5.75
2023-01-31T19:49:10.525Z,5.76
2023-01-31T19:51:37.777Z,5.75
2023-01-31T19:54:06.261Z,5.74
2023-01-31T19:56:33.348Z,5.74
2023-01-31T19:59:00.669Z,5.76
2023-01-31T20:01:28.022Z,5.78
2023-01-31T20:03:55.209Z,5.80
2023-01-31T20:06:27.332Z,5.81
2023-01-31T20:08:59.161Z,5.80
2023-01-31T20:11:27.570Z,5.81
2023-01-31T20:13:56.867Z,5.84
2023-01-31T20:16:24.369Z,5.85
2023-01-31T20:18:52.723Z,5.85
2023-01-31T20:21:21.089Z,5.85
2023-01-31T20:23:51.002Z,5.85
2023-01-31T20:26:18.808Z,5.86
2023-01-31T20:28:46.111Z,5.88
2023-01-31T20:31:14.041Z,5.90
2023-01-31T20:33:41.239Z,5.89
2023-01-31T20:36:08.518Z,5.87
2023-01-31T20:38:37.378Z,5.87
2023-01-31T20:41:06.767Z,5.87
2023-01-31T20:43:34.130Z,5.88
2023-01-31T20:46:08.584Z,5.89
2023-01-31T20:48:35.715Z,5.88
2023-01-31T20:51:02.951Z,5.87
2023-01-31T20:53:30.194Z,5.83
2023-01-31T20:55:57.884Z,5.81
2023-01-31T20:58:27.058Z,5.82
2023-01-31T21:00:54.956Z,5.82
2023-01-31T21:03:22.177Z,5.80
2023-01-31T21:05:50.059Z,5.79
2023-01-31T21:08:18.217Z,5.79
2023-01-31T21:10:51.919Z,5.79
2023-01-31T21:13:20.008Z,5.80
2023-01-31T21:15:50.627Z,5.80
2023-01-31T21:18:17.986Z,5.78
2023-01-31T21:20:45.224Z,5.76
2023-01-31T21:23:12.170Z,5.75
2023-01-31T21:25:39.212Z,5.75
2023-01-31T21:28:06.271Z,5.76
2023-01-31T21:30:33.414Z,5.78
2023-01-31T21:33:00.374Z,5.78
2023-01-31T21:35:27.504Z,5.78
2023-01-31T21:37:54.859Z,5.79
2023-01-31T21:40:22.150Z,5.79
2023-01-31T21:42:53.364Z,5.79
2023-01-31T21:45:38.941Z,5.78
2023-01-31T21:48:28.613Z,5.77
2023-01-31T21:50:56.482Z,5.77
2023-01-31T21:53:23.636Z,5.75
2023-01-31T21:55:59.175Z,5.74
2023-01-31T21:58:26.464Z,5.73
2023-01-31T22:00:53.479Z,5.74
2023-01-31T22:03:20.531Z,5.75
2023-01-31T22:05:49.004Z,5.74
2023-01-31T22:08:16.251Z,5.73
2023-01-31T22:10:43.090Z,5.71
2023-01-31T22:13:10.763Z,5.68
2023-01-31T22:15:37.945Z,5.65
2023-01-31T22:18:05.360Z,5.62
2023-01-31T22:20:32.407Z,5.60
2023-01-31T22:23:00.171Z,5.59
2023-01-31T22:25:27.215Z,5.60
2023-01-31T22:27:56.311Z,5.63
2023-01-31T22:30:23.358Z,5.66
2023-01-31T22:32:51.334Z,5.66
2023-01-31T22:35:18.375Z,5.68
2023-01-31T22:37:45.521Z,5.68
2023-01-31T22:40:13.191Z,5.70
2023-01-31T22:42:43.619Z,5.74
2023-01-31T22:45:11.171Z,5.73
2023-01-31T22:47:38.730Z,5.68
2023-01-31T22:50:06.389Z,5.69
2023-01-31T22:52:33.332Z,5.69
2023-01-31T22:55:00.499Z,5.71
2023-01-31T22:57:27.524Z,5.73
2023-01-31T22:59:54.473Z,5.82
2023-01-31T23:02:21.417Z,5.89
2023-01-31T23:04:48.463Z,5.91
2023-01-31T23:07:16.227Z,5.92
2023-01-31T23:09:43.479Z,5.91
2023-01-31T23:12:10.731Z,5.93
2023-01-31T23:14:37.788Z,5.96
2023-01-31T23:17:23.154Z,5.98
2023-01-31T23:19:53.757Z,5.93
2023-01-31T23:22:20.729Z,5.96
2023-01-31T23:24:47.571Z,5.86
2023-01-31T23:27:14.928Z,5.85
2023-01-31T23:29:41.973Z,5.94
2023-01-31T23:32:09.146Z,5.96
2023-01-31T23:34:36.167Z,5.93
2023-01-31T23:37:04.037Z,5.87
2023-01-31T23:39:31.389Z,5.82
2023-01-31T23:41:58.332Z,5.79
2023-01-31T23:44:25.587Z,5.78
2023-01-31T23:46:52.545Z,5.76
2023-01-31T23:49:19.472Z,5.77
2023-01-31T23:51:46.519Z,5.78
2023-01-31T23:54:13.777Z,5.83
2023-01-31T23:56:40.951Z,5.87
2023-01-31T23:59:08.070Z,5.88
